Time;durP1;ratioP1;P1;durP2;ratioP2;P2;SDS_P1;SDS_P2;PMS_P1;PMS_P2;Temp;Humidity;BMP_temperature;BMP_pressure;BME280_temperature;BME280_humidity;BME280_pressure;Samples;Min_cycle;Max_cycle;Signal;HPM_P1;HPM_P2
2023/02/07 00:00:45;;;;;;;13.63;8.63;;;9.30;83.10;;;;;;6097707;23;20337;-80
2023/02/07 00:03:11;;;;;;;12.93;8.60;;;9.30;83.10;;;;;;6072091;23;20349;-79
2023/02/07 00:05:37;;;;;;;13.20;8.32;;;9.30;83.10;;;;;;6071551;23;20014;-80
2023/02/07 00:08:04;;;;;;;18.48;8.55;;;9.20;83.10;;;;;;6097410;23;20455;-80
2023/02/07 00:10:30;;;;;;;13.23;8.30;;;9.30;83.10;;;;;;6070964;23;20033;-79
2023/02/07 00:12:55;;;;;;;13.57;8.80;;;9.30;83.00;;;;;;6097017;23;20453;-80
2023/02/07 00:15:20;;;;;;;12.85;8.32;;;9.30;83.10;;;;;;6095941;23;20042;-80
2023/02/07 00:17:46;;;;;;;14.52;8.80;;;9.30;83.00;;;;;;6094986;23;20002;-80
2023/02/07 00:20:12;;;;;;;14.15;8.63;;;9.20;83.00;;;;;;6096937;23;19998;-80
2023/02/07 00:22:37;;;;;;;13.85;9.07;;;9.20;83.00;;;;;;6097285;23;20367;-81
2023/02/07 00:25:03;;;;;;;12.23;8.20;;;9.20;82.90;;;;;;6096693;23;20003;-80
2023/02/07 00:27:29;;;;;;;12.60;8.57;;;9.30;83.00;;;;;;6096166;23;20006;-80
2023/02/07 00:29:54;;;;;;;13.32;8.65;;;9.20;83.00;;;;;;6096045;23;20007;-80
2023/02/07 00:32:20;;;;;;;13.40;8.30;;;9.20;82.90;;;;;;6096202;23;20002;-80
2023/02/07 00:34:46;;;;;;;13.18;8.57;;;9.30;83.00;;;;;;6071396;23;20021;-80
2023/02/07 00:37:12;;;;;;;12.77;8.25;;;9.30;82.90;;;;;;6077861;23;20017;-83
2023/02/07 00:39:38;;;;;;;13.50;8.50;;;9.20;82.80;;;;;;6095775;23;19999;-80
2023/02/07 00:42:04;;;;;;;13.75;8.52;;;9.20;82.80;;;;;;6093858;23;20007;-80
2023/02/07 00:44:30;;;;;;;14.13;8.55;;;9.20;82.70;;;;;;6093643;23;20353;-81
2023/02/07 00:46:56;;;;;;;13.13;8.75;;;9.20;82.70;;;;;;6093711;23;20009;-80
2023/02/07 00:49:21;;;;;;;14.20;8.50;;;9.30;82.80;;;;;;6093753;23;20089;-81
2023/02/07 00:51:47;;;;;;;12.98;8.35;;;9.30;82.80;;;;;;6095181;23;20334;-81
2023/02/07 00:54:12;;;;;;;12.13;7.97;;;9.20;82.80;;;;;;6097954;23;20038;-80
2023/02/07 00:56:38;;;;;;;13.10;8.18;;;9.30;82.80;;;;;;6096585;23;20047;-81
2023/02/07 00:59:03;;;;;;;13.02;8.18;;;9.20;82.80;;;;;;6093530;23;20010;-80
2023/02/07 01:01:29;;;;;;;12.73;7.80;;;9.20;82.90;;;;;;6093778;23;20060;-79
2023/02/07 01:03:55;;;;;;;12.57;8.50;;;9.20;82.80;;;;;;6093321;23;20007;-80
2023/02/07 01:06:21;;;;;;;13.23;8.27;;;9.30;82.90;;;;;;6094397;23;20017;-81
2023/02/07 01:08:47;;;;;;;12.88;8.35;;;9.30;82.80;;;;;;6096599;23;20089;-80
2023/02/07 01:11:15;;;;;;;12.65;8.02;;;9.20;82.80;;;;;;6096536;23;20011;-80
2023/02/07 01:13:42;;;;;;;12.07;8.52;;;9.20;82.80;;;;;;6094730;23;20441;-80
2023/02/07 01:16:25;;;;;;;12.23;7.68;;;9.20;82.80;;;;;;6092927;23;20010;-81
2023/02/07 01:18:51;;;;;;;11.63;8.02;;;9.30;82.90;;;;;;6093970;23;20006;-80
2023/02/07 01:21:20;;;;;;;11.95;8.23;;;9.20;82.80;;;;;;6094142;23;20357;-80
2023/02/07 01:23:46;;;;;;;12.77;8.20;;;9.20;82.90;;;;;;6093523;23;20007;-80
2023/02/07 01:26:11;;;;;;;11.35;7.55;;;9.20;82.80;;;;;;6093700;23;20045;-79
2023/02/07 01:28:37;;;;;;;12.73;8.48;;;9.20;82.80;;;;;;6093613;23;20085;-79
2023/02/07 01:31:08;;;;;;;13.18;7.95;;;9.30;82.80;;;;;;6093028;23;20058;-81
2023/02/07 01:33:35;;;;;;;12.73;8.25;;;9.20;82.80;;;;;;6095547;23;20018;-79
2023/02/07 01:36:05;;;;;;;12.13;7.90;;;9.20;82.70;;;;;;6094772;23;20132;-81
2023/02/07 01:38:31;;;;;;;13.00;7.80;;;9.30;82.80;;;;;;6096484;23;20038;-80
2023/02/07 01:40:56;;;;;;;12.13;8.07;;;9.20;82.70;;;;;;6095692;23;20076;-79
2023/02/07 01:43:24;;;;;;;12.63;7.90;;;9.20;82.80;;;;;;6069617;23;20042;-80
2023/02/07 01:45:49;;;;;;;12.07;8.10;;;9.20;82.80;;;;;;6068298;23;20524;-79
2023/02/07 01:48:21;;;;;;;12.63;8.38;;;9.20;82.80;;;;;;6068648;23;20042;-81
2023/02/07 01:50:50;;;;;;;11.93;7.82;;;9.20;83.30;;;;;;6068693;23;20017;-80
2023/02/07 01:53:18;;;;;;;11.90;7.80;;;9.20;82.80;;;;;;6094211;23;20022;-81
2023/02/07 01:55:47;;;;;;;11.65;7.85;;;9.20;82.80;;;;;;6068259;23;20006;-79
2023/02/07 01:58:13;;;;;;;13.32;8.23;;;9.20;82.80;;;;;;6072190;23;20006;-82
2023/02/07 02:00:39;;;;;;;13.32;7.75;;;9.20;82.70;;;;;;6071707;23;20018;-79
2023/02/07 02:03:04;;;;;;;11.82;7.68;;;9.10;82.70;;;;;;6074398;23;20002;-81
2023/02/07 02:05:32;;;;;;;11.32;7.60;;;9.20;82.80;;;;;;6068322;23;20006;-81
2023/02/07 02:07:58;;;;;;;11.73;7.72;;;9.20;82.70;;;;;;6068516;23;20010;-81
2023/02/07 02:10:37;;;;;;;11.20;7.43;;;9.20;82.70;;;;;;6068874;23;20038;-82
2023/02/07 02:13:14;;;;;;;11.98;7.97;;;9.20;82.80;;;;;;6074522;23;20010;-81
2023/02/07 02:15:59;;;;;;;12.27;7.60;;;9.20;82.70;;;;;;6070289;23;20002;-80
2023/02/07 02:18:40;;;;;;;12.10;7.93;;;9.20;82.80;;;;;;6070084;23;20010;-80
2023/02/07 02:21:26;;;;;;;11.88;7.90;;;9.20;82.60;;;;;;6095078;23;19994;-80
2023/02/07 02:24:23;;;;;;;11.25;7.63;;;9.20;82.60;;;;;;6072162;23;20086;-81
2023/02/07 02:27:26;;;;;;;11.77;7.47;;;9.20;82.70;;;;;;6070518;23;20009;-81
2023/02/07 02:30:07;;;;;;;12.20;7.90;;;9.20;82.70;;;;;;6063557;23;20003;-81
2023/02/07 02:33:09;;;;;;;12.50;8.10;;;9.20;82.70;;;;;;6071225;23;20009;-81
2023/02/07 02:35:59;;;;;;;11.50;7.60;;;9.20;82.70;;;;;;6055232;23;20096;-81
2023/02/07 02:38:36;;;;;;;11.40;7.68;;;9.20;82.70;;;;;;6093162;23;20021;-81
2023/02/07 02:41:16;;;;;;;11.23;7.57;;;9.20;82.70;;;;;;6094684;23;20018;-80
2023/02/07 02:43:58;;;;;;;10.35;6.82;;;9.20;82.70;;;;;;6094777;23;20062;-81
2023/02/07 02:46:27;;;;;;;10.85;6.97;;;9.20;82.70;;;;;;6094137;23;20459;-80
2023/02/07 02:48:54;;;;;;;11.88;7.68;;;9.20;82.70;;;;;;6094172;23;20003;-80
2023/02/07 02:51:20;;;;;;;11.13;7.55;;;9.20;82.60;;;;;;6094228;23;20058;-81
2023/02/07 02:53:53;;;;;;;11.07;7.57;;;9.20;82.60;;;;;;6094171;23;20006;-81
2023/02/07 02:56:48;;;;;;;11.32;7.55;;;9.20;82.70;;;;;;6096422;23;20441;-81
2023/02/07 02:59:40;;;;;;;10.55;7.30;;;9.20;83.10;;;;;;6097697;23;20006;-81
2023/02/07 03:02:25;;;;;;;12.45;7.78;;;9.20;82.70;;;;;;6094129;23;20003;-78
2023/02/07 03:05:16;;;;;;;10.82;8.02;;;9.20;82.70;;;;;;6093953;23;20010;-80
2023/02/07 03:07:57;;;;;;;11.18;7.63;;;9.20;82.60;;;;;;6081887;23;20006;-79
2023/02/07 03:11:06;;;;;;;11.65;7.70;;;9.20;82.60;;;;;;6093630;23;20057;-81
2023/02/07 03:13:42;;;;;;;10.43;7.07;;;9.20;82.60;;;;;;6098122;23;20002;-81
2023/02/07 03:16:31;;;;;;;10.02;7.30;;;9.20;82.60;;;;;;6094849;23;20476;-81
2023/02/07 03:19:08;;;;;;;10.98;7.85;;;9.20;82.60;;;;;;6095218;23;20416;-81
2023/02/07 03:21:50;;;;;;;10.73;7.75;;;9.20;82.50;;;;;;6095311;23;19998;-82
2023/02/07 03:24:20;;;;;;;11.50;7.95;;;9.20;82.60;;;;;;6098256;23;20522;-80
2023/02/07 03:26:48;;;;;;;11.48;7.57;;;9.10;82.40;;;;;;6097396;23;20007;-81
2023/02/07 03:29:16;;;;;;;12.05;7.35;;;9.20;82.50;;;;;;6095682;23;20036;-81
2023/02/07 03:31:46;;;;;;;11.77;7.78;;;9.20;82.50;;;;;;6097201;23;20014;-81
2023/02/07 03:34:16;;;;;;;11.80;7.55;;;9.20;82.40;;;;;;6097039;23;20396;-81
2023/02/07 03:36:51;;;;;;;11.82;8.32;;;9.20;82.40;;;;;;6099560;23;20010;-81
2023/02/07 03:39:16;;;;;;;11.00;7.88;;;9.20;82.60;;;;;;6103220;23;20268;-81
2023/02/07 03:41:50;;;;;;;10.73;7.25;;;9.20;82.50;;;;;;6098602;23;20006;-79
2023/02/07 03:44:18;;;;;;;11.02;7.50;;;9.20;82.50;;;;;;6072432;23;20003;-80
2023/02/07 03:46:43;;;;;;;10.88;7.90;;;9.20;82.50;;;;;;6098376;23;20041;-79
2023/02/07 03:49:10;;;;;;;11.27;7.32;;;9.20;82.40;;;;;;6098237;23;20003;-80
2023/02/07 03:51:36;;;;;;;11.48;8.07;;;9.20;82.50;;;;;;6072655;23;20354;-80
2023/02/07 03:54:02;;;;;;;11.02;7.63;;;9.20;82.40;;;;;;6072180;23;20002;-82
2023/02/07 03:56:28;;;;;;;10.60;7.32;;;9.10;82.30;;;;;;6072644;23;20006;-82
2023/02/07 03:58:53;;;;;;;10.80;7.63;;;9.20;82.40;;;;;;6096868;23;20085;-80
2023/02/07 04:01:19;;;;;;;10.73;7.55;;;9.20;82.40;;;;;;6073458;23;20003;-81
2023/02/07 04:03:44;;;;;;;10.30;7.18;;;9.20;82.30;;;;;;6072440;23;20438;-80
2023/02/07 04:06:10;;;;;;;10.52;7.32;;;9.20;82.30;;;;;;6073638;23;20011;-81
2023/02/07 04:08:35;;;;;;;10.88;7.57;;;9.20;82.30;;;;;;6075369;23;20005;-81
2023/02/07 04:11:03;;;;;;;9.98;7.18;;;9.20;82.30;;;;;;6101478;23;20380;-81
2023/02/07 04:13:29;;;;;;;9.80;6.88;;;9.20;82.80;;;;;;6075081;23;21638;-81
2023/02/07 04:15:55;;;;;;;11.48;8.00;;;9.20;82.80;;;;;;6073836;23;20452;-81
2023/02/07 04:18:21;;;;;;;10.20;7.68;;;9.20;82.40;;;;;;6072932;23;20002;-77
2023/02/07 04:20:46;;;;;;;10.63;7.50;;;9.10;82.20;;;;;;6067639;23;20056;-78
2023/02/07 04:23:12;;;;;;;10.38;7.03;;;9.20;82.30;;;;;;6091560;23;20028;-78
2023/02/07 04:25:38;;;;;;;10.65;7.60;;;9.20;82.30;;;;;;6064164;23;20014;-77
2023/02/07 04:28:03;;;;;;;10.95;7.70;;;9.20;82.70;;;;;;6087929;23;20077;-77
2023/02/07 04:30:30;;;;;;;10.27;7.57;;;9.20;82.30;;;;;;6063994;23;20635;-76
2023/02/07 04:32:56;;;;;;;11.00;7.70;;;9.20;82.30;;;;;;6064335;23;20574;-78
2023/02/07 04:35:21;;;;;;;11.13;7.07;;;9.10;82.10;;;;;;6062084;23;20007;-80
2023/02/07 04:37:47;;;;;;;11.18;8.23;;;9.10;82.20;;;;;;6077195;23;20326;-77
2023/02/07 04:40:12;;;;;;;11.05;8.10;;;9.20;82.20;;;;;;6086356;23;20002;-79
2023/02/07 04:42:38;;;;;;;10.82;7.78;;;9.10;82.10;;;;;;6086587;23;20007;-77
2023/02/07 04:45:04;;;;;;;13.23;8.73;;;9.10;82.10;;;;;;6085694;23;20013;-81
2023/02/07 04:47:30;;;;;;;12.43;8.32;;;9.10;82.10;;;;;;6088151;23;20010;-76
2023/02/07 04:49:55;;;;;;;12.18;8.38;;;9.20;82.10;;;;;;6087837;23;20010;-77
2023/02/07 04:52:21;;;;;;;12.05;8.45;;;9.10;82.10;;;;;;6088033;23;20034;-78
2023/02/07 04:54:46;;;;;;;11.98;8.40;;;9.10;82.00;;;;;;6086609;23;20107;-78
2023/02/07 04:57:12;;;;;;;13.20;9.10;;;9.10;82.00;;;;;;6086609;23;20003;-77
2023/02/07 04:59:37;;;;;;;11.88;8.63;;;9.10;82.00;;;;;;6088596;23;20013;-79
2023/02/07 05:02:03;;;;;;;12.88;9.50;;;9.10;82.00;;;;;;6086862;23;20030;-77
2023/02/07 05:04:28;;;;;;;11.73;8.80;;;9.20;82.10;;;;;;6088505;23;20306;-78
2023/02/07 05:06:54;;;;;;;12.80;8.98;;;9.10;82.00;;;;;;6087132;23;20014;-78
2023/02/07 05:09:19;;;;;;;12.27;8.27;;;9.20;82.00;;;;;;6086129;23;20029;-76
2023/02/07 05:11:45;;;;;;;11.88;9.00;;;9.10;81.90;;;;;;6085407;23;20463;-77
2023/02/07 05:14:10;;;;;;;12.43;8.77;;;9.10;82.00;;;;;;6085721;23;20357;-78
2023/02/07 05:16:36;;;;;;;11.38;8.35;;;9.10;81.90;;;;;;6088102;23;20425;-76
2023/02/07 05:19:01;;;;;;;12.20;8.88;;;9.20;82.00;;;;;;6086574;23;20003;-76
2023/02/07 05:21:27;;;;;;;11.75;8.80;;;9.10;82.00;;;;;;6086861;23;20094;-78
2023/02/07 05:23:52;;;;;;;11.95;8.65;;;9.10;82.00;;;;;;6088294;23;20006;-78
2023/02/07 05:26:18;;;;;;;11.63;8.75;;;9.10;81.90;;;;;;6089286;23;20017;-77
2023/02/07 05:28:43;;;;;;;11.75;9.05;;;9.20;81.90;;;;;;6087771;23;20400;-81
2023/02/07 05:31:09;;;;;;;12.50;9.50;;;9.20;81.80;;;;;;6088701;23;20011;-79
2023/02/07 05:33:35;;;;;;;11.50;9.00;;;9.10;81.70;;;;;;6088505;23;20003;-80
2023/02/07 05:36:04;;;;;;;13.80;9.85;;;9.10;81.80;;;;;;6087811;23;20006;-77
2023/02/07 05:38:29;;;;;;;12.77;9.73;;;9.10;81.70;;;;;;6090859;23;20010;-78
2023/02/07 05:40:55;;;;;;;13.75;10.07;;;9.20;81.80;;;;;;6088566;23;20006;-82
2023/02/07 05:43:20;;;;;;;12.88;9.90;;;9.10;81.70;;;;;;6062695;23;20089;-77
2023/02/07 05:45:46;;;;;;;12.85;10.15;;;9.10;81.70;;;;;;6061545;23;20010;-79
2023/02/07 05:48:12;;;;;;;14.00;9.85;;;9.10;81.70;;;;;;6085575;23;20007;-79
2023/02/07 05:50:37;;;;;;;13.23;10.10;;;9.10;81.70;;;;;;6085441;23;20045;-80
2023/02/07 05:53:04;;;;;;;11.50;9.23;;;9.10;81.70;;;;;;6061764;23;20735;-77
2023/02/07 05:55:29;;;;;;;13.70;9.82;;;9.10;81.70;;;;;;6061020;23;20014;-76
2023/02/07 05:57:55;;;;;;;12.68;9.98;;;9.10;81.70;;;;;;6061098;23;20003;-77
2023/02/07 06:00:21;;;;;;;12.98;10.10;;;9.10;81.80;;;;;;6061443;23;20017;-79
2023/02/07 06:02:46;;;;;;;12.95;10.10;;;9.10;81.80;;;;;;6061851;23;20097;-77
2023/02/07 06:05:14;;;;;;;12.65;10.02;;;9.10;81.70;;;;;;6086244;23;20044;-80
2023/02/07 06:07:39;;;;;;;13.00;10.20;;;9.10;81.70;;;;;;6062900;23;20437;-79
2023/02/07 06:10:06;;;;;;;12.95;10.23;;;9.10;81.80;;;;;;6063347;23;20010;-78
2023/02/07 06:12:32;;;;;;;12.40;9.52;;;9.10;81.70;;;;;;6063072;23;20466;-76
2023/02/07 06:14:57;;;;;;;11.88;9.50;;;9.10;81.70;;;;;;6062407;23;20099;-77
2023/02/07 06:17:23;;;;;;;12.60;9.73;;;9.10;81.70;;;;;;6086182;23;20029;-76
2023/02/07 06:19:49;;;;;;;13.07;10.43;;;9.10;81.70;;;;;;6061658;23;20430;-76
2023/02/07 06:22:15;;;;;;;14.27;10.82;;;9.10;81.70;;;;;;6087318;23;20727;-78
2023/02/07 06:24:40;;;;;;;13.27;10.45;;;9.10;81.70;;;;;;6061573;23;20037;-78
2023/02/07 06:27:06;;;;;;;13.60;10.35;;;9.10;81.70;;;;;;6062339;23;20101;-77
2023/02/07 06:29:31;;;;;;;13.68;10.75;;;9.10;81.70;;;;;;6087148;23;20496;-77
2023/02/07 06:31:57;;;;;;;14.07;10.98;;;9.10;81.70;;;;;;6062355;23;20014;-77
2023/02/07 06:34:22;;;;;;;13.20;10.57;;;9.10;81.70;;;;;;6061775;23;20456;-78
2023/02/07 06:36:48;;;;;;;13.18;11.10;;;9.10;81.70;;;;;;6087622;23;20052;-77
2023/02/07 06:39:14;;;;;;;14.77;12.15;;;9.10;80.50;;;;;;6061835;23;20034;-77
2023/02/07 06:41:39;;;;;;;14.13;11.48;;;9.10;80.40;;;;;;6087500;23;20010;-78
2023/02/07 06:44:05;;;;;;;15.23;11.82;;;9.10;80.90;;;;;;6061683;23;20002;-77
2023/02/07 06:46:30;;;;;;;14.20;11.00;;;9.10;81.00;;;;;;6092111;23;20002;-79
2023/02/07 06:48:56;;;;;;;14.43;10.88;;;9.10;81.00;;;;;;6100148;23;20002;-80
2023/02/07 06:51:21;;;;;;;14.50;11.52;;;9.10;80.90;;;;;;6072617;23;20006;-78
2023/02/07 06:53:47;;;;;;;14.35;11.52;;;9.10;81.00;;;;;;6068778;23;20460;-79
2023/02/07 06:56:13;;;;;;;28.10;12.20;;;9.00;81.00;;;;;;6098946;23;20003;-81
2023/02/07 06:58:38;;;;;;;13.85;10.80;;;9.10;81.20;;;;;;6072300;23;20002;-81
2023/02/07 07:01:04;;;;;;;13.35;10.65;;;9.10;81.20;;;;;;6072933;23;20025;-80
2023/02/07 07:03:29;;;;;;;13.85;11.63;;;9.10;81.10;;;;;;6071792;23;20517;-80
2023/02/07 07:05:56;;;;;;;13.80;11.10;;;9.10;81.00;;;;;;6097904;23;20011;-80
2023/02/07 07:08:23;;;;;;;14.60;11.07;;;9.10;81.10;;;;;;6095674;23;20006;-80
2023/02/07 07:10:48;;;;;;;13.48;10.77;;;9.10;81.00;;;;;;6095496;23;20033;-81
2023/02/07 07:13:14;;;;;;;14.18;11.45;;;9.10;81.00;;;;;;6071202;23;20010;-80
2023/02/07 07:15:39;;;;;;;14.48;10.80;;;9.10;81.00;;;;;;6096473;23;20326;-80
2023/02/07 07:18:05;;;;;;;14.10;11.45;;;9.10;81.00;;;;;;6069849;23;20140;-80
2023/02/07 07:20:31;;;;;;;13.80;11.27;;;9.10;80.90;;;;;;6072664;23;20337;-80
2023/02/07 07:22:56;;;;;;;14.15;10.90;;;9.10;81.00;;;;;;6096164;23;20089;-81
2023/02/07 07:25:22;;;;;;;13.70;10.73;;;9.10;81.00;;;;;;6096456;23;20028;-80
2023/02/07 07:27:47;;;;;;;14.50;11.52;;;9.20;81.00;;;;;;6071150;23;20010;-80
2023/02/07 07:30:13;;;;;;;13.35;11.65;;;9.20;80.90;;;;;;6069561;23;20010;-80
2023/02/07 07:32:39;;;;;;;13.30;10.93;;;9.20;80.80;;;;;;6094880;23;20006;-79
2023/02/07 07:35:05;;;;;;;13.80;10.98;;;9.20;81.30;;;;;;6095822;23;20011;-79
2023/02/07 07:37:31;;;;;;;13.77;10.95;;;9.30;80.80;;;;;;6106002;23;20021;-80
2023/02/07 07:39:56;;;;;;;13.43;10.63;;;9.30;80.80;;;;;;6094112;23;20093;-79
2023/02/07 07:42:22;;;;;;;13.32;10.60;;;9.30;80.70;;;;;;6096419;23;20007;-80
2023/02/07 07:44:48;;;;;;;13.40;11.07;;;9.40;80.60;;;;;;6097069;23;20018;-81
2023/02/07 07:47:13;;;;;;;13.23;10.98;;;9.40;80.50;;;;;;6095178;23;20006;-80
2023/02/07 07:49:39;;;;;;;12.80;10.20;;;9.40;80.40;;;;;;6095086;23;20077;-80
2023/02/07 07:52:05;;;;;;;12.48;10.50;;;9.50;80.40;;;;;;6096318;23;20429;-79
2023/02/07 07:54:30;;;;;;;12.73;10.25;;;9.40;80.20;;;;;;6095515;23;20013;-80
2023/02/07 07:56:56;;;;;;;12.68;10.52;;;9.50;80.20;;;;;;6096183;23;20007;-81
2023/02/07 07:59:21;;;;;;;12.77;10.30;;;9.60;80.10;;;;;;6098267;23;20025;-79
2023/02/07 08:01:47;;;;;;;12.15;10.30;;;9.60;79.90;;;;;;6095299;23;20003;-79
2023/02/07 08:04:12;;;;;;;12.63;10.35;;;9.60;79.80;;;;;;6095682;23;20011;-79
2023/02/07 08:06:38;;;;;;;13.30;10.32;;;9.70;79.70;;;;;;6094735;23;20006;-80
2023/02/07 08:09:03;;;;;;;12.30;9.90;;;9.70;79.60;;;;;;6093938;23;20014;-79
2023/02/07 08:11:29;;;;;;;12.75;10.27;;;9.70;79.50;;;;;;6096298;23;20069;-80
2023/02/07 08:13:54;;;;;;;12.43;10.00;;;9.80;79.40;;;;;;6095085;23;20033;-80
2023/02/07 08:16:20;;;;;;;12.95;9.90;;;9.80;79.30;;;;;;6095683;23;20379;-80
2023/02/07 08:18:45;;;;;;;22.38;10.80;;;9.80;79.20;;;;;;6095646;23;20003;-80
2023/02/07 08:21:11;;;;;;;12.23;10.18;;;9.90;79.20;;;;;;6097446;23;20078;-81
2023/02/07 08:23:37;;;;;;;12.30;9.90;;;9.90;79.20;;;;;;6097697;23;19999;-80
2023/02/07 08:26:03;;;;;;;12.65;10.20;;;9.90;79.00;;;;;;6096052;23;20010;-80
2023/02/07 08:28:30;;;;;;;12.45;10.07;;;10.00;78.90;;;;;;6093913;23;20003;-80
2023/02/07 08:31:03;;;;;;;11.85;9.90;;;10.00;78.80;;;;;;6093917;23;20011;-80
2023/02/07 08:33:29;;;;;;;12.15;10.07;;;10.10;78.90;;;;;;6095857;23;20081;-79
2023/02/07 08:35:55;;;;;;;11.07;9.10;;;10.00;78.70;;;;;;6096900;23;20064;-80
2023/02/07 08:38:21;;;;;;;12.30;10.02;;;10.00;78.50;;;;;;6097115;23;20520;-79
2023/02/07 08:40:46;;;;;;;11.77;9.60;;;10.10;78.40;;;;;;6096870;23;20037;-80
2023/02/07 08:43:13;;;;;;;12.05;9.82;;;10.20;78.40;;;;;;6095515;23;20384;-79
2023/02/07 08:45:40;;;;;;;12.40;9.93;;;10.20;78.20;;;;;;6093972;23;20018;-79
2023/02/07 08:48:06;;;;;;;12.68;9.82;;;10.20;78.30;;;;;;6069708;23;20352;-80
2023/02/07 08:50:31;;;;;;;11.98;9.98;;;10.20;78.30;;;;;;6096031;23;20074;-80
2023/02/07 08:52:57;;;;;;;11.27;9.52;;;10.30;78.20;;;;;;6096869;23;20011;-80
2023/02/07 08:55:22;;;;;;;11.38;8.88;;;10.30;78.30;;;;;;6097825;23;20010;-80
2023/02/07 08:57:48;;;;;;;13.30;10.23;;;10.30;78.30;;;;;;6094159;23;20014;-79
2023/02/07 09:00:14;;;;;;;12.40;9.55;;;10.30;78.00;;;;;;6096523;23;19994;-81
2023/02/07 09:02:41;;;;;;;10.75;9.52;;;10.40;78.10;;;;;;6101053;23;20009;-81
2023/02/07 09:05:07;;;;;;;11.70;9.60;;;10.40;77.80;;;;;;6074899;23;20042;-80
2023/02/07 09:07:33;;;;;;;10.90;9.02;;;10.40;77.80;;;;;;6100773;23;20314;-80
2023/02/07 09:09:58;;;;;;;11.38;9.50;;;10.50;77.70;;;;;;6100449;23;20014;-80
2023/02/07 09:12:24;;;;;;;11.23;9.10;;;10.50;77.60;;;;;;6100751;23;20457;-80
2023/02/07 09:14:49;;;;;;;12.13;9.75;;;10.50;77.50;;;;;;6098179;23;20015;-80
2023/02/07 09:17:15;;;;;;;12.07;9.38;;;10.50;77.30;;;;;;6099723;23;20009;-80
2023/02/07 09:19:40;;;;;;;11.45;9.30;;;10.50;77.30;;;;;;6073343;23;20515;-80
2023/02/07 09:22:06;;;;;;;10.60;8.70;;;10.50;77.40;;;;;;6097056;23;20006;-80
2023/02/07 09:24:32;;;;;;;11.60;9.10;;;10.60;77.40;;;;;;6098481;23;20010;-80
2023/02/07 09:26:58;;;;;;;10.63;8.50;;;10.60;77.70;;;;;;6072285;23;20354;-80
2023/02/07 09:29:23;;;;;;;11.38;9.38;;;10.60;77.90;;;;;;6098956;23;20090;-80
2023/02/07 09:31:49;;;;;;;10.35;8.45;;;10.60;77.60;;;;;;6072751;23;20034;-80
2023/02/07 09:34:14;;;;;;;10.65;8.85;;;10.60;77.80;;;;;;6097842;23;20030;-80
2023/02/07 09:36:40;;;;;;;11.32;9.05;;;10.60;77.70;;;;;;6097631;23;20011;-80
2023/02/07 09:39:05;;;;;;;11.18;8.88;;;10.70;77.80;;;;;;6097896;23;19999;-80
2023/02/07 09:41:46;;;;;;;10.25;8.57;;;10.70;77.50;;;;;;6096409;23;20006;-80
2023/02/07 09:44:36;;;;;;;11.07;8.95;;;10.70;77.60;;;;;;6096289;23;20375;-80
2023/02/07 09:47:10;;;;;;;11.10;8.80;;;10.70;77.90;;;;;;6097297;23;20005;-80
2023/02/07 09:49:51;;;;;;;11.05;8.65;;;10.70;77.90;;;;;;6100809;23;20660;-80
2023/02/07 09:52:25;;;;;;;10.18;8.07;;;10.80;77.60;;;;;;6098846;23;20006;-80
2023/02/07 09:54:54;;;;;;;10.18;7.90;;;10.70;77.50;;;;;;6097954;23;20017;-81
2023/02/07 09:57:51;;;;;;;10.73;8.40;;;10.80;77.60;;;;;;6098128;23;20038;-80
2023/02/07 10:00:36;;;;;;;10.20;7.93;;;10.80;77.40;;;;;;6099638;23;20013;-80
2023/02/07 10:03:19;;;;;;;10.23;8.10;;;10.80;77.50;;;;;;6098159;23;20029;-81
2023/02/07 10:05:53;;;;;;;9.70;7.82;;;10.80;77.40;;;;;;6099071;23;20009;-79
2023/02/07 10:08:20;;;;;;;10.02;8.45;;;10.90;77.30;;;;;;6099152;23;20028;-80
2023/02/07 10:10:51;;;;;;;9.95;7.85;;;10.90;77.60;;;;;;6098613;23;20006;-80
2023/02/07 10:13:23;;;;;;;9.57;8.07;;;10.90;77.50;;;;;;6098938;23;20010;-80
2023/02/07 10:15:51;;;;;;;9.95;7.57;;;11.00;77.30;;;;;;6097382;23;20018;-80
2023/02/07 10:18:16;;;;;;;10.50;7.97;;;11.00;77.50;;;;;;6097059;23;20029;-80
2023/02/07 10:21:09;;;;;;;9.55;7.88;;;11.00;77.60;;;;;;6099618;23;20002;-80
2023/02/07 10:23:49;;;;;;;9.85;8.10;;;11.00;77.40;;;;;;6096134;23;20060;-80
2023/02/07 10:26:36;;;;;;;9.20;7.50;;;11.00;76.90;;;;;;6095909;23;20032;-80
2023/02/07 10:29:20;;;;;;;9.70;7.95;;;11.00;77.20;;;;;;6097660;23;20015;-80
2023/02/07 10:31:49;;;;;;;9.80;7.75;;;11.00;77.30;;;;;;6097539;23;20013;-80
2023/02/07 10:34:24;;;;;;;10.25;8.43;;;11.10;76.60;;;;;;6095110;23;20030;-81
2023/02/07 10:36:54;;;;;;;8.98;7.10;;;11.10;76.40;;;;;;6094534;23;20345;-79
2023/02/07 10:39:40;;;;;;;10.55;8.10;;;11.20;76.70;;;;;;6095082;23;20002;-80
2023/02/07 10:42:13;;;;;;;9.63;7.70;;;11.10;76.30;;;;;;6094942;23;20010;-79
2023/02/07 10:44:39;;;;;;;10.23;8.05;;;11.10;76.50;;;;;;6096944;23;20022;-79
2023/02/07 10:47:08;;;;;;;9.07;7.20;;;11.20;76.40;;;;;;6098609;23;20021;-80
2023/02/07 10:49:36;;;;;;;9.35;7.68;;;11.20;76.50;;;;;;6097019;23;20445;-80
2023/02/07 10:52:13;;;;;;;9.35;7.65;;;11.20;76.40;;;;;;6094085;23;20013;-80
2023/02/07 10:54:51;;;;;;;9.30;7.22;;;11.20;76.30;;;;;;6093831;23;20456;-80
2023/02/07 10:57:19;;;;;;;9.63;7.30;;;11.20;76.30;;;;;;6095384;23;19999;-79
2023/02/07 10:59:45;;;;;;;8.85;6.85;;;11.20;76.20;;;;;;6096164;23;20033;-80
2023/02/07 11:02:31;;;;;;;9.15;7.45;;;11.20;76.30;;;;;;6096697;23;20017;-79
2023/02/07 11:05:07;;;;;;;8.93;6.97;;;11.20;76.20;;;;;;6094061;23;20592;-80
2023/02/07 11:07:33;;;;;;;10.38;7.20;;;11.30;76.20;;;;;;6096153;23;20468;-79
2023/02/07 11:10:15;;;;;;;8.82;6.97;;;11.30;76.20;;;;;;6097894;23;20012;-80
2023/02/07 11:12:52;;;;;;;9.25;7.43;;;11.30;76.20;;;;;;6096289;23;20014;-79
2023/02/07 11:15:22;;;;;;;9.18;7.22;;;11.30;76.30;;;;;;6094972;23;20524;-79
2023/02/07 11:17:50;;;;;;;8.80;7.00;;;11.30;76.20;;;;;;6092907;23;20034;-81
2023/02/07 11:20:28;;;;;;;11.50;7.60;;;11.30;76.30;;;;;;6094322;23;20006;-80
2023/02/07 11:22:55;;;;;;;9.35;7.40;;;11.30;76.40;;;;;;6095257;23;20077;-79
2023/02/07 11:25:34;;;;;;;9.63;7.28;;;11.30;76.30;;;;;;6092255;23;20011;-79
2023/02/07 11:27:59;;;;;;;8.43;6.75;;;11.30;76.30;;;;;;6095150;23;20002;-80
2023/02/07 11:30:28;;;;;;;8.90;7.10;;;11.30;76.20;;;;;;6094751;23;20015;-79
2023/02/07 11:33:01;;;;;;;8.85;6.70;;;11.30;76.20;;;;;;6095876;23;20034;-81
2023/02/07 11:35:27;;;;;;;8.85;6.88;;;11.40;76.20;;;;;;6096765;23;20003;-80
2023/02/07 11:38:10;;;;;;;8.80;6.85;;;11.40;76.20;;;;;;6097564;23;20034;-80
2023/02/07 11:40:42;;;;;;;8.93;7.07;;;11.40;76.10;;;;;;6071475;23;20006;-80
2023/02/07 11:43:08;;;;;;;8.30;6.63;;;11.40;76.10;;;;;;6100103;23;20082;-80
2023/02/07 11:45:35;;;;;;;8.63;6.82;;;11.40;76.10;;;;;;6071802;23;20007;-79
2023/02/07 11:48:01;;;;;;;8.43;6.43;;;11.40;76.20;;;;;;6071801;23;20033;-80
2023/02/07 11:50:29;;;;;;;9.00;7.13;;;11.40;76.10;;;;;;6071180;23;20006;-79
2023/02/07 11:52:57;;;;;;;9.18;6.70;;;11.40;76.10;;;;;;6095630;23;20431;-79
2023/02/07 11:55:29;;;;;;;8.10;6.40;;;11.40;76.10;;;;;;6094574;23;20337;-80
2023/02/07 11:57:56;;;;;;;8.88;6.63;;;11.50;76.20;;;;;;6070015;23;20034;-81
2023/02/07 12:00:28;;;;;;;7.97;6.00;;;11.50;76.20;;;;;;6069509;23;20045;-80
2023/02/07 12:03:08;;;;;;;8.30;6.57;;;11.50;76.10;;;;;;6069734;23;20369;-79
2023/02/07 12:05:38;;;;;;;8.75;6.50;;;11.50;76.00;;;;;;6094698;23;20006;-79
2023/02/07 12:08:16;;;;;;;8.77;6.50;;;11.50;75.90;;;;;;6070197;23;20003;-79
2023/02/07 12:10:47;;;;;;;8.55;6.38;;;11.50;75.90;;;;;;6073905;23;20010;-80
2023/02/07 12:13:28;;;;;;;8.77;6.68;;;11.50;75.90;;;;;;6071494;23;20007;-79
2023/02/07 12:15:56;;;;;;;8.93;6.38;;;11.50;76.00;;;;;;6096138;23;20006;-80
2023/02/07 12:18:35;;;;;;;8.80;6.60;;;11.50;75.90;;;;;;6069746;23;20066;-79
2023/02/07 12:21:33;;;;;;;8.77;6.28;;;11.50;76.00;;;;;;6095745;23;20437;-79
2023/02/07 12:24:09;;;;;;;8.23;6.50;;;11.50;76.10;;;;;;6064783;23;20388;-80
2023/02/07 12:27:07;;;;;;;8.35;6.22;;;11.50;76.30;;;;;;6075031;23;20003;-81
2023/02/07 12:29:38;;;;;;;8.95;6.20;;;11.50;76.10;;;;;;6100484;23;19995;-80
2023/02/07 12:32:16;;;;;;;8.18;6.45;;;11.50;76.10;;;;;;6101217;23;20034;-80
2023/02/07 12:35:13;;;;;;;8.40;6.15;;;11.50;76.20;;;;;;6098783;23;20463;-79
2023/02/07 12:37:52;;;;;;;8.15;6.22;;;11.50;76.20;;;;;;6111983;23;20014;-81
2023/02/07 12:40:20;;;;;;;8.10;6.13;;;11.50;76.30;;;;;;6099282;23;20109;-80
2023/02/07 12:42:55;;;;;;;7.70;5.85;;;11.50;76.50;;;;;;6099730;23;19998;-80
2023/02/07 12:45:38;;;;;;;7.97;5.90;;;11.50;76.50;;;;;;6097015;23;20481;-80
2023/02/07 12:48:16;;;;;;;9.05;6.65;;;11.50;76.80;;;;;;6099458;23;20072;-80
2023/02/07 12:51:03;;;;;;;7.95;5.97;;;11.50;76.70;;;;;;6096846;23;20006;-79
2023/02/07 12:53:52;;;;;;;7.97;5.90;;;11.50;76.40;;;;;;6098676;23;20002;-79
2023/02/07 12:56:38;;;;;;;7.63;5.88;;;11.50;76.40;;;;;;6095895;23;20014;-79